Time;durP1;ratioP1;P1;durP2;ratioP2;P2;SDS_P1;SDS_P2;PMS_P1;PMS_P2;Temp;Humidity;BMP_temperature;BMP_pressure;BME280_temperature;BME280_humidity;BME280_pressure;Samples;Min_cycle;Max_cycle;Signal;HPM_P1;HPM_P2
2022/03/13 00:01:03;;;;;;;16.00;12.95;;;9.10;99.90;;;;;;5015526;28;20042;-73
2022/03/13 00:03:32;;;;;;;16.75;13.20;;;9.10;99.90;;;;;;5015785;28;20065;-73
2022/03/13 00:05:58;;;;;;;18.08;13.15;;;9.10;99.90;;;;;;5015376;28;20045;-73
2022/03/13 00:08:32;;;;;;;19.83;13.23;;;9.10;99.90;;;;;;5015388;28;20042;-72
2022/03/13 00:11:09;;;;;;;17.83;12.95;;;9.10;99.90;;;;;;5015298;28;20049;-73
2022/03/13 00:13:44;;;;;;;18.08;13.05;;;9.10;99.90;;;;;;5015613;28;20042;-73
2022/03/13 00:16:09;;;;;;;16.80;13.30;;;9.00;99.90;;;;;;5015549;28;20394;-73
2022/03/13 00:18:36;;;;;;;17.20;13.30;;;9.10;99.90;;;;;;5015217;28;20521;-73
2022/03/13 00:21:04;;;;;;;15.77;13.23;;;9.00;99.90;;;;;;5015067;28;20050;-73
2022/03/13 00:23:33;;;;;;;18.27;12.95;;;9.00;99.90;;;;;;5015085;28;20052;-73
2022/03/13 00:25:59;;;;;;;17.88;13.68;;;9.00;99.90;;;;;;5015115;28;20041;-73
2022/03/13 00:28:25;;;;;;;19.13;13.32;;;9.00;99.90;;;;;;5015025;28;20179;-73
2022/03/13 00:30:51;;;;;;;16.92;12.55;;;9.00;99.90;;;;;;5014781;28;20131;-73
2022/03/13 00:33:17;;;;;;;15.27;12.90;;;9.00;99.90;;;;;;5014912;28;20037;-73
2022/03/13 00:35:43;;;;;;;18.10;13.95;;;9.00;99.90;;;;;;5015169;28;20141;-73
2022/03/13 00:38:09;;;;;;;17.60;13.38;;;9.00;99.90;;;;;;5014862;28;20042;-73
2022/03/13 00:40:35;;;;;;;18.30;13.30;;;9.00;99.90;;;;;;5015147;28;20051;-73
2022/03/13 00:43:01;;;;;;;15.88;13.68;;;9.00;99.90;;;;;;5014799;28;20444;-73
2022/03/13 00:45:28;;;;;;;17.02;13.68;;;9.00;99.90;;;;;;5014728;28;20049;-73
2022/03/13 00:47:53;;;;;;;16.88;13.07;;;9.00;99.90;;;;;;4998334;28;20053;-73
2022/03/13 00:50:19;;;;;;;14.95;12.73;;;8.90;99.90;;;;;;5014539;28;20425;-73
2022/03/13 00:52:44;;;;;;;14.98;12.93;;;8.90;99.90;;;;;;4998241;28;20034;-73
2022/03/13 00:55:10;;;;;;;17.38;13.48;;;8.90;99.90;;;;;;5014767;28;20045;-73
2022/03/13 00:57:36;;;;;;;17.30;12.95;;;9.00;99.90;;;;;;5014744;28;20046;-73
2022/03/13 01:00:03;;;;;;;16.23;13.48;;;8.90;99.90;;;;;;5014383;28;20128;-73
2022/03/13 01:02:28;;;;;;;15.80;13.10;;;8.90;99.90;;;;;;4998103;28;20077;-73
2022/03/13 01:04:54;;;;;;;17.63;13.20;;;8.90;99.90;;;;;;5014866;28;20078;-73
2022/03/13 01:07:20;;;;;;;16.77;12.48;;;9.00;99.90;;;;;;5014347;28;20096;-73
2022/03/13 01:09:46;;;;;;;17.13;13.38;;;8.90;99.90;;;;;;5014163;28;20038;-73
2022/03/13 01:12:11;;;;;;;17.08;12.63;;;9.00;99.90;;;;;;5014197;28;20429;-73
2022/03/13 01:14:37;;;;;;;17.08;13.45;;;9.00;99.90;;;;;;5014169;28;20044;-73
2022/03/13 01:17:08;;;;;;;17.00;13.82;;;9.00;99.90;;;;;;5014175;28;20084;-73
2022/03/13 01:19:34;;;;;;;19.05;13.77;;;9.00;99.90;;;;;;4998183;28;20046;-73
2022/03/13 01:22:00;;;;;;;17.33;13.48;;;9.00;99.90;;;;;;5014054;28;20048;-73
2022/03/13 01:24:45;;;;;;;16.92;13.38;;;9.00;99.90;;;;;;5014045;28;20045;-73
2022/03/13 01:27:17;;;;;;;15.40;12.63;;;9.00;99.90;;;;;;5014033;28;20054;-73
2022/03/13 01:29:44;;;;;;;14.77;11.95;;;9.00;99.90;;;;;;5013783;28;20121;-73
2022/03/13 01:32:12;;;;;;;17.70;12.48;;;9.00;99.90;;;;;;5014170;28;20038;-73
2022/03/13 01:35:05;;;;;;;17.95;12.80;;;9.00;99.90;;;;;;5014095;28;20129;-73
2022/03/13 01:37:33;;;;;;;16.83;12.10;;;9.00;99.90;;;;;;5008969;28;20046;-73
2022/03/13 01:40:04;;;;;;;17.45;13.20;;;9.10;99.90;;;;;;5022248;23;20064;-73
2022/03/13 01:42:30;;;;;;;16.02;11.55;;;9.00;99.90;;;;;;5013717;28;20042;-73
2022/03/13 01:44:55;;;;;;;15.88;12.40;;;9.10;99.90;;;;;;5013647;28;20045;-73
2022/03/13 01:47:21;;;;;;;17.23;12.38;;;9.10;99.90;;;;;;5013631;28;20070;-73
2022/03/13 01:49:47;;;;;;;15.65;11.90;;;9.10;99.90;;;;;;4997100;28;20041;-73
2022/03/13 01:52:15;;;;;;;16.25;12.00;;;9.10;99.90;;;;;;4997192;28;20042;-73
2022/03/13 01:54:41;;;;;;;15.15;12.48;;;9.20;99.90;;;;;;5013475;28;20117;-73
2022/03/13 01:57:07;;;;;;;17.15;12.65;;;9.20;99.90;;;;;;5013714;28;20125;-73
2022/03/13 01:59:35;;;;;;;16.95;12.48;;;9.20;99.90;;;;;;5012798;28;20460;-73
2022/03/13 02:02:00;;;;;;;18.90;11.60;;;9.20;99.90;;;;;;5013575;28;20068;-73
2022/03/13 02:04:28;;;;;;;15.27;12.63;;;9.20;99.90;;;;;;5013273;28;20417;-73
2022/03/13 02:06:58;;;;;;;16.27;12.20;;;9.20;99.90;;;;;;5013271;28;20099;-73
2022/03/13 02:09:27;;;;;;;18.58;12.57;;;9.20;99.90;;;;;;5013073;28;20050;-73
2022/03/13 02:11:54;;;;;;;16.15;12.88;;;9.20;99.90;;;;;;5013353;28;20153;-73
2022/03/13 02:14:24;;;;;;;15.98;12.32;;;9.20;99.90;;;;;;4996785;28;20042;-73
2022/03/13 02:16:51;;;;;;;16.30;12.50;;;9.20;99.90;;;;;;4997043;28;20029;-73
2022/03/13 02:19:17;;;;;;;16.10;12.57;;;9.20;99.90;;;;;;5012931;28;20042;-73
2022/03/13 02:21:45;;;;;;;13.98;11.98;;;9.20;99.90;;;;;;5012987;28;20410;-74
2022/03/13 02:24:23;;;;;;;15.25;12.15;;;9.20;99.90;;;;;;5012952;28;20046;-74
2022/03/13 02:27:00;;;;;;;15.70;12.93;;;9.20;99.90;;;;;;5013219;28;20143;-74
2022/03/13 02:29:26;;;;;;;16.00;13.38;;;9.20;99.90;;;;;;5012714;28;20052;-74
2022/03/13 02:31:53;;;;;;;16.38;13.07;;;9.10;99.90;;;;;;5012803;28;20033;-74
2022/03/13 02:34:19;;;;;;;16.50;13.40;;;9.10;99.90;;;;;;5012768;28;20088;-74
2022/03/13 02:36:49;;;;;;;18.02;13.68;;;9.10;99.90;;;;;;5013038;28;20050;-74
2022/03/13 02:39:15;;;;;;;17.17;13.68;;;9.00;99.90;;;;;;5012502;28;20046;-74
2022/03/13 02:41:41;;;;;;;18.25;14.48;;;8.90;99.90;;;;;;5012711;28;20044;-74
2022/03/13 02:44:08;;;;;;;18.48;14.55;;;8.90;99.90;;;;;;4996320;28;20083;-74
2022/03/13 02:46:46;;;;;;;18.67;14.65;;;8.80;99.90;;;;;;5012596;28;20053;-74
2022/03/13 02:49:20;;;;;;;19.92;14.93;;;8.80;99.90;;;;;;4996021;28;20516;-74
2022/03/13 02:51:47;;;;;;;17.73;13.75;;;8.80;99.90;;;;;;5012538;28;20410;-74
2022/03/13 02:54:14;;;;;;;16.33;13.75;;;8.70;99.90;;;;;;5012730;28;20042;-74
2022/03/13 02:56:39;;;;;;;17.30;14.18;;;8.70;99.90;;;;;;5012427;28;20401;-74
2022/03/13 02:59:05;;;;;;;18.60;13.30;;;8.70;99.90;;;;;;4995923;28;20037;-74
2022/03/13 03:01:31;;;;;;;21.73;14.98;;;8.70;99.90;;;;;;5012288;28;20096;-74
2022/03/13 03:04:01;;;;;;;18.58;13.68;;;8.60;99.90;;;;;;5012579;28;20096;-74
2022/03/13 03:06:31;;;;;;;20.58;14.55;;;8.60;99.90;;;;;;4995978;28;20038;-74
2022/03/13 03:09:00;;;;;;;17.25;13.68;;;8.60;99.90;;;;;;4996059;28;20092;-74
2022/03/13 03:11:26;;;;;;;20.40;14.40;;;8.50;99.90;;;;;;5011691;28;20038;-74
2022/03/13 03:13:51;;;;;;;18.30;14.27;;;8.50;99.90;;;;;;5012262;28;20505;-74
2022/03/13 03:16:17;;;;;;;19.58;14.60;;;8.50;99.90;;;;;;4995879;28;20447;-74
2022/03/13 03:18:42;;;;;;;19.92;14.65;;;8.50;99.90;;;;;;5012135;28;20042;-74
2022/03/13 03:21:08;;;;;;;19.13;15.30;;;8.40;99.90;;;;;;5012285;28;20034;-74
2022/03/13 03:23:33;;;;;;;19.10;15.88;;;8.40;99.90;;;;;;5012688;28;20468;-74
2022/03/13 03:25:59;;;;;;;18.75;14.57;;;8.40;99.90;;;;;;4995950;28;20438;-74
2022/03/13 03:28:25;;;;;;;19.17;14.45;;;8.30;99.90;;;;;;4995995;28;20045;-74
2022/03/13 03:30:51;;;;;;;21.23;14.90;;;8.30;99.90;;;;;;5011898;28;20532;-74
2022/03/13 03:33:16;;;;;;;18.50;14.35;;;8.30;99.90;;;;;;5012072;28;20076;-74
2022/03/13 03:35:42;;;;;;;20.17;14.02;;;8.30;99.90;;;;;;5012041;28;20041;-74
2022/03/13 03:38:08;;;;;;;16.80;14.40;;;8.30;99.90;;;;;;5012180;28;20045;-74
2022/03/13 03:40:35;;;;;;;20.08;14.68;;;8.20;99.90;;;;;;5012064;28;20053;-74
2022/03/13 03:43:05;;;;;;;19.13;14.95;;;8.20;99.90;;;;;;5011943;28;20128;-74
2022/03/13 03:45:31;;;;;;;21.20;14.80;;;8.20;99.90;;;;;;5011944;28;20048;-74
2022/03/13 03:47:57;;;;;;;17.05;14.15;;;8.10;99.90;;;;;;4995697;28;20082;-74
2022/03/13 03:50:23;;;;;;;17.73;13.50;;;8.10;99.90;;;;;;5011797;28;20502;-74
2022/03/13 03:52:54;;;;;;;16.95;13.88;;;8.00;99.90;;;;;;5011770;28;20048;-74
2022/03/13 03:55:20;;;;;;;18.75;14.80;;;8.00;99.90;;;;;;5012150;28;20145;-74
2022/03/13 03:57:46;;;;;;;19.20;13.82;;;8.00;99.90;;;;;;4995473;28;20038;-74
2022/03/13 04:00:12;;;;;;;17.48;14.77;;;7.90;99.90;;;;;;5011702;28;20041;-74
2022/03/13 04:02:39;;;;;;;17.23;13.93;;;7.90;99.90;;;;;;4995409;28;20486;-74
2022/03/13 04:05:06;;;;;;;18.45;14.48;;;7.90;99.90;;;;;;5011763;28;20124;-74
2022/03/13 04:07:32;;;;;;;18.60;13.57;;;7.80;99.90;;;;;;4995388;28;20052;-74
2022/03/13 04:09:58;;;;;;;18.50;14.73;;;7.80;99.90;;;;;;5011583;28;20042;-74
2022/03/13 04:12:25;;;;;;;16.48;13.77;;;7.80;99.90;;;;;;5011678;28;20038;-74
2022/03/13 04:14:52;;;;;;;20.55;14.40;;;7.80;99.90;;;;;;4995285;28;20033;-74
2022/03/13 04:17:18;;;;;;;18.90;14.25;;;7.80;99.90;;;;;;5011667;28;20073;-74
2022/03/13 04:19:43;;;;;;;21.30;14.15;;;7.80;99.90;;;;;;5011507;28;20053;-74
2022/03/13 04:22:09;;;;;;;17.52;14.25;;;7.80;99.90;;;;;;4997384;28;20049;-74
2022/03/13 04:24:34;;;;;;;18.98;14.95;;;7.80;99.90;;;;;;4998885;28;20508;-74
2022/03/13 04:27:00;;;;;;;18.23;13.77;;;7.80;99.90;;;;;;5015331;28;20042;-74
2022/03/13 04:29:27;;;;;;;17.58;14.13;;;7.80;99.90;;;;;;5014940;28;20413;-74
2022/03/13 04:31:53;;;;;;;18.52;14.55;;;7.80;99.90;;;;;;5015064;28;20125;-74
2022/03/13 04:34:19;;;;;;;19.27;14.18;;;7.70;99.90;;;;;;5014949;28;20505;-74
2022/03/13 04:36:45;;;;;;;17.60;14.52;;;7.80;99.90;;;;;;4998632;28;20052;-74
2022/03/13 04:39:11;;;;;;;18.92;14.05;;;7.80;99.90;;;;;;5014761;28;20045;-74
2022/03/13 04:41:40;;;;;;;17.92;13.70;;;7.80;99.90;;;;;;5014874;28;20050;-74
2022/03/13 04:44:08;;;;;;;18.00;14.20;;;7.80;99.90;;;;;;5014797;28;20045;-74
2022/03/13 04:46:35;;;;;;;17.45;13.20;;;7.80;99.90;;;;;;5014759;28;20042;-74
2022/03/13 04:49:00;;;;;;;18.23;14.35;;;7.80;99.90;;;;;;5014585;28;20046;-74
2022/03/13 04:51:26;;;;;;;21.30;14.38;;;7.80;99.90;;;;;;4998290;28;20125;-74
2022/03/13 04:53:52;;;;;;;19.73;15.27;;;7.70;99.90;;;;;;5014626;28;20124;-74
2022/03/13 04:56:18;;;;;;;19.13;14.30;;;7.70;99.90;;;;;;5014875;28;20077;-74
2022/03/13 04:58:43;;;;;;;17.33;14.27;;;7.70;99.90;;;;;;4998233;28;20458;-74
2022/03/13 05:01:10;;;;;;;16.83;14.27;;;7.70;99.90;;;;;;5014399;28;20041;-74
2022/03/13 05:03:35;;;;;;;19.92;14.43;;;7.70;99.90;;;;;;5014469;28;20049;-74
2022/03/13 05:06:05;;;;;;;17.55;14.55;;;7.70;99.90;;;;;;5014553;28;20129;-74
2022/03/13 05:08:36;;;;;;;17.98;14.43;;;7.60;99.90;;;;;;5015468;28;20069;-74
2022/03/13 05:11:05;;;;;;;17.63;14.20;;;7.60;99.90;;;;;;5014230;28;20042;-74
2022/03/13 05:13:31;;;;;;;17.20;14.02;;;7.60;99.90;;;;;;4997949;28;20486;-74
2022/03/13 05:15:57;;;;;;;19.63;13.55;;;7.50;99.90;;;;;;5014200;28;20042;-74
2022/03/13 05:18:22;;;;;;;19.40;14.18;;;7.50;99.90;;;;;;5014491;28;20046;-74
2022/03/13 05:20:48;;;;;;;17.70;14.27;;;7.50;99.90;;;;;;5014319;28;20445;-74
2022/03/13 05:23:14;;;;;;;17.65;13.95;;;7.40;99.90;;;;;;5014355;28;20444;-74
2022/03/13 05:25:41;;;;;;;16.52;14.10;;;7.40;99.90;;;;;;5014358;28;20497;-74
2022/03/13 05:28:08;;;;;;;17.30;14.23;;;7.40;99.90;;;;;;5014282;28;20409;-74
2022/03/13 05:30:34;;;;;;;17.02;13.48;;;7.30;99.90;;;;;;5013832;28;20129;-74
2022/03/13 05:33:00;;;;;;;17.25;14.05;;;7.30;99.90;;;;;;5013082;28;20045;-74
2022/03/13 05:35:26;;;;;;;16.98;14.25;;;7.30;99.90;;;;;;5013868;28;20049;-74
2022/03/13 05:37:52;;;;;;;18.00;14.50;;;7.30;99.90;;;;;;5013911;28;20417;-74
2022/03/13 05:40:20;;;;;;;20.40;14.30;;;7.20;99.90;;;;;;5013745;28;20037;-74
2022/03/13 05:42:57;;;;;;;17.45;14.93;;;7.20;99.90;;;;;;5013670;28;20037;-74
2022/03/13 05:45:28;;;;;;;19.23;14.20;;;7.20;99.90;;;;;;5013757;28;20094;-74
2022/03/13 05:47:57;;;;;;;17.98;14.35;;;7.20;99.90;;;;;;5013804;28;20497;-74
2022/03/13 05:50:25;;;;;;;17.83;13.68;;;7.20;99.90;;;;;;4997336;28;20421;-74
2022/03/13 05:52:55;;;;;;;18.75;13.85;;;7.20;99.90;;;;;;5013753;28;20049;-74
2022/03/13 05:55:22;;;;;;;16.35;14.05;;;7.10;99.90;;;;;;5013526;28;20049;-74
2022/03/13 05:57:48;;;;;;;16.20;13.70;;;7.10;99.90;;;;;;4997088;28;20080;-74
2022/03/13 06:00:15;;;;;;;18.80;14.25;;;7.20;99.90;;;;;;5013569;28;20081;-74
2022/03/13 06:02:46;;;;;;;15.43;12.75;;;7.20;99.90;;;;;;4996974;28;20450;-74
2022/03/13 06:05:15;;;;;;;18.63;13.23;;;7.20;99.90;;;;;;4997036;28;20041;-74
2022/03/13 06:07:41;;;;;;;23.13;13.73;;;7.10;99.90;;;;;;5013262;28;20129;-74
2022/03/13 06:10:08;;;;;;;17.15;14.50;;;7.10;99.90;;;;;;4996685;28;20484;-74
2022/03/13 06:12:35;;;;;;;18.35;13.52;;;7.10;99.90;;;;;;5013449;28;20037;-74
2022/03/13 06:15:03;;;;;;;16.42;13.23;;;7.10;99.90;;;;;;4997095;28;20129;-74
2022/03/13 06:17:29;;;;;;;18.20;13.73;;;7.10;99.90;;;;;;5012991;28;20489;-74
2022/03/13 06:19:55;;;;;;;16.73;13.00;;;7.00;99.90;;;;;;4996584;28;20056;-74
2022/03/13 06:22:23;;;;;;;21.90;13.68;;;7.00;99.90;;;;;;5013028;28;20524;-74
2022/03/13 06:24:49;;;;;;;15.20;12.00;;;7.00;99.90;;;;;;4996629;28;20044;-74
2022/03/13 06:27:16;;;;;;;16.20;12.82;;;7.00;99.90;;;;;;5013205;28;20050;-74
2022/03/13 06:29:42;;;;;;;14.30;12.13;;;7.00;99.90;;;;;;4996459;28;20038;-74
2022/03/13 06:32:07;;;;;;;16.17;13.05;;;7.10;99.90;;;;;;5012816;28;20171;-74
2022/03/13 06:34:34;;;;;;;15.70;12.48;;;7.10;99.90;;;;;;5012757;28;20041;-74
2022/03/13 06:37:00;;;;;;;17.85;12.60;;;7.10;99.90;;;;;;5012762;28;20038;-74
2022/03/13 06:39:25;;;;;;;16.08;11.43;;;7.10;99.90;;;;;;5012560;28;20038;-74
2022/03/13 06:41:51;;;;;;;15.88;11.90;;;7.10;99.90;;;;;;4996584;28;20044;-74
2022/03/13 06:44:17;;;;;;;17.80;12.82;;;7.10;99.90;;;;;;4996169;28;20052;-74
2022/03/13 06:46:43;;;;;;;14.50;12.50;;;7.10;99.90;;;;;;5012586;28;20087;-74
2022/03/13 06:49:09;;;;;;;15.35;12.25;;;7.20;99.90;;;;;;5012632;28;20038;-74
2022/03/13 06:51:38;;;;;;;17.17;11.95;;;7.20;99.90;;;;;;5012435;28;20441;-74
2022/03/13 06:54:07;;;;;;;13.98;11.77;;;7.20;99.90;;;;;;5012828;28;20085;-74
2022/03/13 06:56:34;;;;;;;15.60;12.07;;;7.20;99.90;;;;;;5012463;28;20088;-74
2022/03/13 06:59:03;;;;;;;18.27;12.45;;;7.20;99.90;;;;;;5012316;28;20494;-74
2022/03/13 07:01:31;;;;;;;16.02;11.77;;;7.30;99.90;;;;;;5012332;28;20038;-74
2022/03/13 07:03:57;;;;;;;15.82;11.77;;;7.30;99.90;;;;;;5012572;28;20125;-74
2022/03/13 07:06:23;;;;;;;16.65;12.20;;;7.40;99.90;;;;;;5012284;28;20077;-74
2022/03/13 07:08:49;;;;;;;14.48;11.25;;;7.50;99.90;;;;;;5012261;28;20042;-74
2022/03/13 07:11:16;;;;;;;14.02;12.15;;;7.50;99.90;;;;;;5012162;28;20038;-74
2022/03/13 07:13:44;;;;;;;13.20;10.88;;;7.60;99.90;;;;;;5012211;28;20042;-74
2022/03/13 07:16:10;;;;;;;16.00;11.35;;;7.60;99.90;;;;;;4995847;28;20041;-74
2022/03/13 07:18:37;;;;;;;17.02;11.90;;;7.70;99.90;;;;;;5012213;28;20079;-74
2022/03/13 07:21:03;;;;;;;16.02;11.88;;;7.70;99.90;;;;;;4995782;28;20045;-74
2022/03/13 07:23:29;;;;;;;15.07;11.48;;;7.80;99.90;;;;;;5012100;28;20048;-74
2022/03/13 07:25:54;;;;;;;14.63;11.15;;;7.80;99.90;;;;;;5012104;28;20129;-74
2022/03/13 07:28:20;;;;;;;13.88;10.55;;;7.90;99.90;;;;;;4995704;28;20041;-74
2022/03/13 07:30:46;;;;;;;14.05;10.90;;;7.90;99.90;;;;;;5011909;28;20091;-74
2022/03/13 07:33:12;;;;;;;13.73;10.98;;;8.00;99.90;;;;;;5012065;28;20073;-74
2022/03/13 07:35:38;;;;;;;14.70;11.23;;;8.00;99.90;;;;;;5012021;28;20116;-74
2022/03/13 07:38:04;;;;;;;15.25;11.55;;;8.10;99.80;;;;;;4995873;28;20153;-74
2022/03/13 07:40:31;;;;;;;13.00;10.95;;;8.20;99.10;;;;;;5012887;28;20559;-74
2022/03/13 07:42:57;;;;;;;14.20;11.32;;;8.30;98.50;;;;;;5011889;28;20402;-74
2022/03/13 07:45:24;;;;;;;15.13;11.32;;;8.40;97.70;;;;;;4995528;28;20418;-74
2022/03/13 07:47:50;;;;;;;14.00;10.57;;;8.50;96.80;;;;;;5012053;28;20042;-74
2022/03/13 07:50:16;;;;;;;15.20;10.90;;;8.60;96.30;;;;;;5011754;28;20497;-74
2022/03/13 07:52:42;;;;;;;14.93;10.85;;;8.70;95.40;;;;;;5012007;28;20121;-74
2022/03/13 07:55:08;;;;;;;13.35;10.15;;;8.70;94.10;;;;;;5012647;28;20101;-73
2022/03/13 07:57:34;;;;;;;14.82;10.68;;;8.80;93.00;;;;;;5014936;28;20436;-73
2022/03/13 07:59:59;;;;;;;15.13;10.18;;;8.80;92.70;;;;;;5015543;28;20037;-73
2022/03/13 08:02:26;;;;;;;16.05;10.38;;;8.90;92.20;;;;;;5015575;28;20049;-73
2022/03/13 08:04:52;;;;;;;14.45;10.30;;;8.90;91.20;;;;;;5015560;28;20564;-73
2022/03/13 08:07:17;;;;;;;15.48;10.05;;;9.00;91.20;;;;;;4999183;28;20041;-73
2022/03/13 08:09:43;;;;;;;16.52;10.50;;;9.10;87.40;;;;;;4999203;28;20074;-73
2022/03/13 08:12:09;;;;;;;14.52;10.25;;;9.20;86.70;;;;;;5015342;28;20041;-73
2022/03/13 08:14:34;;;;;;;13.65;10.35;;;9.30;85.70;;;;;;5015355;28;20034;-73
2022/03/13 08:17:00;;;;;;;12.25;10.15;;;9.40;85.00;;;;;;5015300;28;20037;-73
2022/03/13 08:19:25;;;;;;;15.23;10.35;;;9.50;84.80;;;;;;4999115;28;20134;-73
2022/03/13 08:21:51;;;;;;;15.00;10.15;;;9.60;81.40;;;;;;5015175;28;20042;-74
2022/03/13 08:24:17;;;;;;;16.25;10.73;;;9.70;79.20;;;;;;4999137;28;20044;-74
2022/03/13 08:26:44;;;;;;;15.18;10.05;;;9.90;74.70;;;;;;4998808;28;20038;-74
2022/03/13 08:29:11;;;;;;;13.45;10.30;;;10.00;71.50;;;;;;4998874;28;20088;-74
2022/03/13 08:31:37;;;;;;;14.05;10.52;;;10.30;68.50;;;;;;5015041;28;20038;-74
2022/03/13 08:34:07;;;;;;;15.25;9.70;;;10.80;65.20;;;;;;4998953;28;20038;-74
2022/03/13 08:36:36;;;;;;;13.25;11.10;;;11.70;62.10;;;;;;5015060;28;20557;-74
2022/03/13 08:39:03;;;;;;;15.00;10.10;;;12.60;58.00;;;;;;5014776;28;20049;-74
2022/03/13 08:41:29;;;;;;;13.68;10.15;;;13.60;54.70;;;;;;5014946;28;20387;-74
2022/03/13 08:43:54;;;;;;;14.18;9.90;;;14.20;52.20;;;;;;5014805;28;20040;-74
2022/03/13 08:46:20;;;;;;;12.80;9.35;;;14.10;51.20;;;;;;4998414;28;20046;-74
2022/03/13 08:48:45;;;;;;;11.30;9.38;;;14.20;51.20;;;;;;5015304;28;20052;-77
2022/03/13 08:51:13;;;;;;;13.88;10.35;;;14.60;50.60;;;;;;5014543;28;20049;-74
2022/03/13 08:53:39;;;;;;;12.30;9.90;;;15.00;49.60;;;;;;5014710;28;20042;-74
2022/03/13 08:56:05;;;;;;;12.18;9.68;;;15.40;48.20;;;;;;5014617;28;20505;-74
2022/03/13 08:58:31;;;;;;;14.18;10.50;;;15.90;47.70;;;;;;5014581;28;20034;-73
2022/03/13 09:00:57;;;;;;;11.90;9.75;;;16.50;46.50;;;;;;5014520;28;20125;-74
2022/03/13 09:03:22;;;;;;;10.55;9.18;;;17.10;44.60;;;;;;4998812;28;20136;-75
2022/03/13 09:05:48;;;;;;;13.48;10.15;;;17.50;43.90;;;;;;5015140;28;20480;-74
2022/03/13 09:08:15;;;;;;;14.05;10.73;;;17.90;43.00;;;;;;5013266;28;20049;-74
2022/03/13 09:10:41;;;;;;;13.02;10.20;;;18.30;42.40;;;;;;5014368;28;20095;-74
2022/03/13 09:13:07;;;;;;;14.30;9.73;;;18.60;41.70;;;;;;5014656;28;20041;-74
2022/03/13 09:15:33;;;;;;;13.95;10.25;;;18.70;41.10;;;;;;5014605;28;20454;-74
2022/03/13 09:18:02;;;;;;;12.80;9.98;;;18.90;41.10;;;;;;5014568;28;20494;-74
2022/03/13 09:20:28;;;;;;;14.52;10.70;;;19.10;40.30;;;;;;5014074;28;20045;-75
2022/03/13 09:22:53;;;;;;;12.70;10.00;;;19.50;40.00;;;;;;5014137;28;20038;-75
2022/03/13 09:25:20;;;;;;;12.77;9.80;;;19.70;39.70;;;;;;5014179;28;20077;-75
2022/03/13 09:27:47;;;;;;;13.35;9.88;;;19.90;38.60;;;;;;5014090;28;20045;-75
2022/03/13 09:30:13;;;;;;;13.23;9.50;;;20.20;38.10;;;;;;5014034;28;20042;-75
2022/03/13 09:32:38;;;;;;;12.50;10.00;;;20.30;38.10;;;;;;4997600;28;20401;-75
2022/03/13 09:35:05;;;;;;;15.00;9.65;;;20.60;37.50;;;;;;5013942;28;20057;-75
2022/03/13 09:37:31;;;;;;;14.93;10.30;;;20.70;37.00;;;;;;4997865;28;20398;-75
2022/03/13 09:39:56;;;;;;;13.90;10.18;;;20.90;37.30;;;;;;5013579;28;20120;-75
2022/03/13 09:42:22;;;;;;;12.85;9.35;;;21.00;37.30;;;;;;4997477;28;20124;-75
2022/03/13 09:44:47;;;;;;;13.70;9.32;;;21.30;37.10;;;;;;4997449;28;20044;-75
2022/03/13 09:47:13;;;;;;;13.88;10.48;;;21.40;36.30;;;;;;5013635;28;20121;-75
2022/03/13 09:49:42;;;;;;;12.88;10.65;;;21.50;35.80;;;;;;5013516;28;20043;-75
2022/03/13 09:52:09;;;;;;;13.07;10.50;;;21.60;35.20;;;;;;5013554;28;20041;-75
2022/03/13 09:54:34;;;;;;;15.75;10.40;;;21.70;35.70;;;;;;4997229;28;20042;-75
2022/03/13 09:57:04;;;;;;;12.43;10.35;;;21.80;35.20;;;;;;5013520;28;20045;-75
2022/03/13 09:59:34;;;;;;;15.50;10.27;;;22.00;34.80;;;;;;5013348;28;20083;-75
2022/03/13 10:02:04;;;;;;;13.40;10.48;;;22.20;34.20;;;;;;5013404;28;20121;-75
2022/03/13 10:04:29;;;;;;;12.68;10.07;;;22.20;34.60;;;;;;4996956;28;20033;-75
2022/03/13 10:07:07;;;;;;;11.25;9.82;;;22.30;35.10;;;;;;5013266;28;20175;-75
2022/03/13 10:09:33;;;;;;;15.35;10.65;;;22.50;35.00;;;;;;5013164;28;20046;-75
2022/03/13 10:12:14;;;;;;;16.10;10.57;;;22.80;34.60;;;;;;5013265;28;20046;-75
2022/03/13 10:15:03;;;;;;;12.63;10.70;;;22.90;34.60;;;;;;5013193;28;20128;-75
2022/03/13 10:17:31;;;;;;;12.80;10.55;;;22.80;34.40;;;;;;5013400;28;20034;-75
2022/03/13 10:20:15;;;;;;;14.18;10.30;;;22.80;34.70;;;;;;5012634;28;20073;-75
2022/03/13 10:22:43;;;;;;;12.45;10.68;;;22.80;34.30;;;;;;5013071;28;20042;-75
2022/03/13 10:25:11;;;;;;;14.10;10.73;;;22.70;34.60;;;;;;5013018;28;20041;-75
2022/03/13 10:27:37;;;;;;;14.50;10.18;;;22.40;34.90;;;;;;4996580;28;20069;-75
2022/03/13 10:30:07;;;;;;;13.20;10.23;;;22.20;36.10;;;;;;5012758;28;20082;-75
2022/03/13 10:32:32;;;;;;;13.98;10.40;;;22.20;35.10;;;;;;5013208;28;20080;-75
2022/03/13 10:34:58;;;;;;;12.45;10.52;;;22.30;35.40;;;;;;4997190;28;20135;-75
2022/03/13 10:37:38;;;;;;;12.05;10.25;;;22.40;36.10;;;;;;4996476;28;20403;-75
2022/03/13 10:40:22;;;;;;;13.77;10.88;;;22.30;35.20;;;;;;4996409;28;20045;-75
2022/03/13 10:42:50;;;;;;;13.98;10.75;;;22.40;35.10;;;;;;5012978;28;20042;-75
2022/03/13 10:45:41;;;;;;;11.95;10.60;;;22.30;36.00;;;;;;4996614;28;20598;-75
2022/03/13 10:48:18;;;;;;;13.38;11.35;;;22.30;35.90;;;;;;4996313;28;20053;-75
2022/03/13 10:50:45;;;;;;;11.82;10.55;;;22.10;36.90;;;;;;5012426;28;20041;-73
2022/03/13 10:53:12;;;;;;;13.18;11.40;;;22.10;36.80;;;;;;4996164;28;20540;-73
2022/03/13 10:55:38;;;;;;;12.48;10.80;;;21.70;36.70;;;;;;5012427;28;20099;-73
2022/03/13 10:58:04;;;;;;;13.57;11.18;;;21.40;37.20;;;;;;4996105;28;20034;-73
2022/03/13 11:00:30;;;;;;;16.80;11.52;;;20.90;37.80;;;;;;4995990;28;20045;-73
2022/03/13 11:03:10;;;;;;;13.80;10.98;;;20.80;38.50;;;;;;4996313;28;20042;-73
2022/03/13 11:05:36;;;;;;;15.40;11.35;;;20.90;38.40;;;;;;4996050;28;20486;-73
2022/03/13 11:08:03;;;;;;;13.38;10.82;;;21.00;38.80;;;;;;5012666;28;20045;-73
2022/03/13 11:10:29;;;;;;;15.02;11.23;;;21.10;38.40;;;;;;5012173;28;20052;-73
2022/03/13 11:12:57;;;;;;;13.50;11.77;;;21.20;38.70;;;;;;5012559;28;20072;-73
2022/03/13 11:15:27;;;;;;;14.02;11.13;;;21.30;38.00;;;;;;5012491;28;20050;-73
2022/03/13 11:17:55;;;;;;;13.45;11.00;;;21.40;37.70;;;;;;5012773;28;20037;-73
2022/03/13 11:20:21;;;;;;;15.40;10.25;;;21.40;38.10;;;;;;5012329;28;20124;-73
2022/03/13 11:22:47;;;;;;;15.95;12.02;;;21.40;38.40;;;;;;5012237;28;20132;-73
2022/03/13 11:25:12;;;;;;;17.05;11.95;;;21.30;38.40;;;;;;4995758;28;20132;-73
2022/03/13 11:27:41;;;;;;;15.25;11.60;;;21.40;38.20;;;;;;5011983;28;20042;-73
2022/03/13 11:30:09;;;;;;;14.63;11.38;;;21.40;38.60;;;;;;4995562;28;20093;-73
2022/03/13 11:32:37;;;;;;;13.38;11.05;;;21.60;38.40;;;;;;5014993;28;20502;-73
2022/03/13 11:35:18;;;;;;;14.60;10.70;;;21.70;38.50;;;;;;5016116;28;20042;-74
2022/03/13 11:37:52;;;;;;;17.52;12.10;;;21.80;37.40;;;;;;5016301;28;20034;-74
2022/03/13 11:40:29;;;;;;;12.93;10.52;;;21.80;37.90;;;;;;5015903;28;20560;-74
2022/03/13 11:43:05;;;;;;;15.00;11.50;;;21.90;37.80;;;;;;5015973;28;20074;-74
2022/03/13 11:45:33;;;;;;;15.00;11.25;;;22.00;37.90;;;;;;5016159;28;20132;-75
2022/03/13 11:48:04;;;;;;;15.43;12.15;;;22.00;37.10;;;;;;5016067;28;20042;-75
2022/03/13 11:50:54;;;;;;;13.20;11.68;;;22.10;36.80;;;;;;5015584;28;20517;-75
2022/03/13 11:53:22;;;;;;;14.43;11.32;;;22.20;36.90;;;;;;5015985;28;20502;-75
2022/03/13 11:56:25;;;;;;;15.07;11.55;;;22.20;36.80;;;;;;5015613;28;20485;-75
2022/03/13 11:59:19;;;;;;;15.07;11.82;;;22.30;35.50;;;;;;4999306;28;20038;-75
2022/03/13 12:01:46;;;;;;;13.40;11.35;;;22.30;36.30;;;;;;4999567;28;20045;-75
2022/03/13 12:04:13;;;;;;;13.57;12.18;;;22.30;36.60;;;;;;5015511;28;20096;-75
2022/03/13 12:06:44;;;;;;;15.80;11.82;;;22.30;36.70;;;;;;5015479;28;20049;-75
2022/03/13 12:09:30;;;;;;;14.85;10.85;;;22.20;37.20;;;;;;4999384;28;20521;-75
2022/03/13 12:12:03;;;;;;;15.30;12.18;;;22.30;36.60;;;;;;4999040;28;20029;-75
2022/03/13 12:14:59;;;;;;;14.05;11.65;;;22.40;36.90;;;;;;5015600;28;20044;-75
2022/03/13 12:17:28;;;;;;;15.68;11.93;;;22.30;36.70;;;;;;4998952;28;20067;-75
2022/03/13 12:20:00;;;;;;;13.65;10.98;;;22.30;37.10;;;;;;4998839;28;20049;-75
2022/03/13 12:22:30;;;;;;;14.30;11.88;;;22.40;37.60;;;;;;5015289;28;20094;-75
2022/03/13 12:24:59;;;;;;;15.27;11.95;;;22.30;36.00;;;;;;5015511;28;20112;-75
2022/03/13 12:27:25;;;;;;;14.70;11.40;;;22.30;36.30;;;;;;5015153;28;20413;-75
2022/03/13 12:29:58;;;;;;;14.45;12.32;;;22.20;36.10;;;;;;5015172;28;20037;-76
2022/03/13 12:32:42;;;;;;;13.80;11.90;;;22.00;36.20;;;;;;4998781;28;20038;-76
2022/03/13 12:35:08;;;;;;;12.88;11.50;;;22.10;35.60;;;;;;5015050;28;20119;-76
2022/03/13 12:37:34;;;;;;;13.23;11.70;;;22.10;36.10;;;;;;5014940;28;20081;-76